sensor_id;sensor_type;location;lat;lon;timestamp;pressure;altitude;pressure_sealevel;temperature;humidity
50125;BME280;36023;48.670;6.184;2023-03-20T00:01:54;99368.13;;;17.48;47.64
50125;BME280;36023;48.670;6.184;2023-03-20T00:04:19;99373.34;;;17.48;47.79
50125;BME280;36023;48.670;6.184;2023-03-20T00:06:45;99378.59;;;17.48;47.60
50125;BME280;36023;48.670;6.184;2023-03-20T00:09:11;99381.22;;;17.48;47.65
50125;BME280;36023;48.670;6.184;2023-03-20T00:11:48;99373.44;;;17.47;47.61
50125;BME280;36023;48.670;6.184;2023-03-20T00:14:17;99378.66;;;17.47;47.50
50125;BME280;36023;48.670;6.184;2023-03-20T00:16:45;99376.97;;;17.46;47.47
50125;BME280;36023;48.670;6.184;2023-03-20T00:19:18;99383.06;;;17.46;47.50
50125;BME280;36023;48.670;6.184;2023-03-20T00:21:45;99386.59;;;17.45;47.34
50125;BME280;36023;48.670;6.184;2023-03-20T00:24:13;99385.75;;;17.45;47.41
50125;BME280;36023;48.670;6.184;2023-03-20T00:26:40;99390.97;;;17.45;47.32
50125;BME280;36023;48.670;6.184;2023-03-20T00:29:17;99386.66;;;17.44;47.52
50125;BME280;36023;48.670;6.184;2023-03-20T00:31:45;99395.38;;;17.44;47.41
50125;BME280;36023;48.670;6.184;2023-03-20T00:34:14;99379.69;;;17.43;47.30
50125;BME280;36023;48.670;6.184;2023-03-20T00:36:44;99383.19;;;17.43;47.39
50125;BME280;36023;48.670;6.184;2023-03-20T00:39:10;99385.00;;;17.41;47.43
50125;BME280;36023;48.670;6.184;2023-03-20T00:44:34;99387.63;;;17.41;47.38
50125;BME280;36023;48.670;6.184;2023-03-20T00:47:13;99384.16;;;17.41;47.33
50125;BME280;36023;48.670;6.184;2023-03-20T00:49:43;99378.06;;;17.40;47.15
50125;BME280;36023;48.670;6.184;2023-03-20T00:52:10;99384.22;;;17.39;47.22
50125;BME280;36023;48.670;6.184;2023-03-20T00:54:37;99391.25;;;17.39;46.94
50125;BME280;36023;48.670;6.184;2023-03-20T00:57:15;99395.63;;;17.38;47.09
50125;BME280;36023;48.670;6.184;2023-03-20T00:59:52;99393.94;;;17.37;47.10
50125;BME280;36023;48.670;6.184;2023-03-20T01:02:20;99392.16;;;17.38;47.00
50125;BME280;36023;48.670;6.184;2023-03-20T01:04:47;99393.94;;;17.37;47.02
50125;BME280;36023;48.670;6.184;2023-03-20T01:07:13;99398.31;;;17.37;47.15
50125;BME280;36023;48.670;6.184;2023-03-20T01:09:40;99397.47;;;17.36;46.87
50125;BME280;36023;48.670;6.184;2023-03-20T01:12:09;99411.44;;;17.35;46.79
50125;BME280;36023;48.670;6.184;2023-03-20T01:14:35;99406.22;;;17.35;46.78
50125;BME280;36023;48.670;6.184;2023-03-20T01:17:01;99416.69;;;17.35;46.90
50125;BME280;36023;48.670;6.184;2023-03-20T01:19:28;99421.06;;;17.35;46.67
50125;BME280;36023;48.670;6.184;2023-03-20T01:21:53;99420.22;;;17.34;46.77
50125;BME280;36023;48.670;6.184;2023-03-20T01:24:19;99417.59;;;17.34;46.85
50125;BME280;36023;48.670;6.184;2023-03-20T01:26:45;99425.47;;;17.34;46.72
50125;BME280;36023;48.670;6.184;2023-03-20T01:29:17;99429.84;;;17.34;46.77
50125;BME280;36023;48.670;6.184;2023-03-20T01:31:44;99431.63;;;17.33;46.69
50125;BME280;36023;48.670;6.184;2023-03-20T01:34:10;99433.38;;;17.33;46.58
50125;BME280;36023;48.670;6.184;2023-03-20T01:36:37;99432.53;;;17.32;46.67
50125;BME280;36023;48.670;6.184;2023-03-20T01:39:04;99440.38;;;17.32;46.56
50125;BME280;36023;48.670;6.184;2023-03-20T01:41:31;99442.16;;;17.32;46.59
50125;BME280;36023;48.670;6.184;2023-03-20T01:43:57;99443.84;;;17.33;46.57
50125;BME280;36023;48.670;6.184;2023-03-20T01:46:29;99431.69;;;17.32;46.59
50125;BME280;36023;48.670;6.184;2023-03-20T01:51:56;99434.38;;;17.30;46.55
50125;BME280;36023;48.670;6.184;2023-03-20T01:54:34;99442.16;;;17.32;46.50
50125;BME280;36023;48.670;6.184;2023-03-20T01:57:14;99434.38;;;17.30;46.58
50125;BME280;36023;48.670;6.184;2023-03-20T01:59:48;99438.75;;;17.30;46.54
50125;BME280;36023;48.670;6.184;2023-03-20T02:02:21;99444.84;;;17.30;46.45
50125;BME280;36023;48.670;6.184;2023-03-20T02:04:52;99439.59;;;17.30;46.45
50125;BME280;36023;48.670;6.184;2023-03-20T02:07:20;99437.06;;;17.29;46.46
50125;BME280;36023;48.670;6.184;2023-03-20T02:10:01;99442.28;;;17.29;46.47
50125;BME280;36023;48.670;6.184;2023-03-20T02:12:39;99441.44;;;17.28;46.46
50125;BME280;36023;48.670;6.184;2023-03-20T02:15:08;99438.81;;;17.28;46.33
50125;BME280;36023;48.670;6.184;2023-03-20T02:17:56;99439.72;;;17.27;46.13
50125;BME280;36023;48.670;6.184;2023-03-20T02:29:13;99447.63;;;17.25;46.25
50125;BME280;36023;48.670;6.184;2023-03-20T02:32:08;99447.63;;;17.25;46.30
50125;BME280;36023;48.670;6.184;2023-03-20T02:37:39;99450.31;;;17.24;46.20
50125;BME280;36023;48.670;6.184;2023-03-20T02:40:32;99458.25;;;17.22;46.14
50125;BME280;36023;48.670;6.184;2023-03-20T02:54:20;99454.84;;;17.20;46.01
50125;BME280;36023;48.670;6.184;2023-03-20T02:59:56;99459.22;;;17.20;45.90
50125;BME280;36023;48.670;6.184;2023-03-20T03:02:41;99448.81;;;17.18;45.83
50125;BME280;36023;48.670;6.184;2023-03-20T03:05:15;99451.41;;;17.18;45.85
50125;BME280;36023;48.670;6.184;2023-03-20T03:07:45;99446.19;;;17.18;46.02
50125;BME280;36023;48.670;6.184;2023-03-20T03:10:37;99441.88;;;17.17;46.03
50125;BME280;36023;48.670;6.184;2023-03-20T03:13:12;99441.88;;;17.17;45.85
50125;BME280;36023;48.670;6.184;2023-03-20T03:15:45;99448.88;;;17.17;45.71
50125;BME280;36023;48.670;6.184;2023-03-20T03:18:17;99439.31;;;17.16;45.80
50125;BME280;36023;48.670;6.184;2023-03-20T03:20:44;99446.31;;;17.15;45.64
50125;BME280;36023;48.670;6.184;2023-03-20T03:23:28;99433.31;;;17.14;45.84
50125;BME280;36023;48.670;6.184;2023-03-20T03:25:57;99423.69;;;17.14;45.62
50125;BME280;36023;48.670;6.184;2023-03-20T03:29:02;99418.44;;;17.14;45.60
50125;BME280;36023;48.670;6.184;2023-03-20T03:31:21;99421.06;;;17.14;45.76
50125;BME280;36023;48.670;6.184;2023-03-20T03:33:54;99424.53;;;17.15;45.78
50125;BME280;36023;48.670;6.184;2023-03-20T03:44:37;99425.53;;;17.12;45.53
50125;BME280;36023;48.670;6.184;2023-03-20T03:47:10;99427.22;;;17.13;45.81
50125;BME280;36023;48.670;6.184;2023-03-20T03:49:42;99430.69;;;17.14;45.66
50125;BME280;36023;48.670;6.184;2023-03-20T03:52:15;99430.75;;;17.12;45.37
50125;BME280;36023;48.670;6.184;2023-03-20T03:54:47;99423.78;;;17.11;45.45
50125;BME280;36023;48.670;6.184;2023-03-20T04:00:41;99429.03;;;17.11;45.62
50125;BME280;36023;48.670;6.184;2023-03-20T04:03:08;99429.03;;;17.11;45.37
50125;BME280;36023;48.670;6.184;2023-03-20T04:05:36;99429.03;;;17.11;45.48
50125;BME280;36023;48.670;6.184;2023-03-20T04:08:06;99428.19;;;17.11;45.57
50125;BME280;36023;48.670;6.184;2023-03-20T04:10:32;99420.31;;;17.11;45.44
50125;BME280;36023;48.670;6.184;2023-03-20T04:12:57;99421.25;;;17.10;45.44
50125;BME280;36023;48.670;6.184;2023-03-20T04:15:23;99419.53;;;17.09;45.39
50125;BME280;36023;48.670;6.184;2023-03-20T04:17:52;99420.41;;;17.09;45.47
50125;BME280;36023;48.670;6.184;2023-03-20T04:20:18;99421.25;;;17.10;45.41
50125;BME280;36023;48.670;6.184;2023-03-20T04:22:45;99420.41;;;17.09;45.40
50125;BME280;36023;48.670;6.184;2023-03-20T04:25:23;99442.25;;;17.08;45.34
50125;BME280;36023;48.670;6.184;2023-03-20T04:27:53;99444.03;;;17.08;45.25
50125;BME280;36023;48.670;6.184;2023-03-20T04:30:39;99440.56;;;17.07;45.27
50125;BME280;36023;48.670;6.184;2023-03-20T04:33:21;99435.38;;;17.06;45.40
50125;BME280;36023;48.670;6.184;2023-03-20T04:36:04;99430.16;;;17.06;45.14
50125;BME280;36023;48.670;6.184;2023-03-20T04:38:31;99434.53;;;17.05;45.35
50125;BME280;36023;48.670;6.184;2023-03-20T04:41:00;99427.53;;;17.06;45.22
50125;BME280;36023;48.670;6.184;2023-03-20T04:43:26;99429.31;;;17.05;45.34
50125;BME280;36023;48.670;6.184;2023-03-20T04:45:51;99426.72;;;17.04;45.36
50125;BME280;36023;48.670;6.184;2023-03-20T04:48:18;99438.91;;;17.05;45.07
50125;BME280;36023;48.670;6.184;2023-03-20T04:50:46;99448.50;;;17.04;45.30
50125;BME280;36023;48.670;6.184;2023-03-20T04:53:14;99446.81;;;17.03;45.20
50125;BME280;36023;48.670;6.184;2023-03-20T04:55:45;99438.97;;;17.03;45.15
50125;BME280;36023;48.670;6.184;2023-03-20T04:58:13;99437.25;;;17.02;45.22
50125;BME280;36023;48.670;6.184;2023-03-20T05:00:40;99445.09;;;17.02;45.28
50125;BME280;36023;48.670;6.184;2023-03-20T05:03:06;99445.97;;;17.03;45.22
50125;BME280;36023;48.670;6.184;2023-03-20T05:05:32;99440.78;;;17.01;45.15
50125;BME280;36023;48.670;6.184;2023-03-20T05:07:58;99439.03;;;17.02;45.24
50125;BME280;36023;48.670;6.184;2023-03-20T05:10:31;99433.84;;;17.00;45.08
50125;BME280;36023;48.670;6.184;2023-03-20T05:13:03;99443.41;;;17.01;45.27
50125;BME280;36023;48.670;6.184;2023-03-20T05:15:28;99439.88;;;17.02;45.31
50125;BME280;36023;48.670;6.184;2023-03-20T05:18:06;99440.56;;;17.07;45.21
50125;BME280;36023;48.670;6.184;2023-03-20T05:21:03;99447.25;;;17.14;45.49
50125;BME280;36023;48.670;6.184;2023-03-20T05:23:41;99444.38;;;17.20;45.48
50125;BME280;36023;48.670;6.184;2023-03-20T05:26:33;99437.25;;;17.24;45.33
50125;BME280;36023;48.670;6.184;2023-03-20T05:29:19;99433.53;;;17.30;45.44
50125;BME280;36023;48.670;6.184;2023-03-20T05:32:11;99439.47;;;17.33;45.33
50125;BME280;36023;48.670;6.184;2023-03-20T05:35:10;99442.75;;;17.38;45.31
50125;BME280;36023;48.670;6.184;2023-03-20T05:38:00;99452.16;;;17.42;45.10
50125;BME280;36023;48.670;6.184;2023-03-20T05:40:37;99456.38;;;17.46;45.05
50125;BME280;36023;48.670;6.184;2023-03-20T05:43:27;99461.47;;;17.49;45.09
50125;BME280;36023;48.670;6.184;2023-03-20T05:45:54;99477.06;;;17.52;44.99
50125;BME280;36023;48.670;6.184;2023-03-20T05:48:59;99471.69;;;17.55;44.98
50125;BME280;36023;48.670;6.184;2023-03-20T05:52:03;99473.31;;;17.58;44.90
50125;BME280;36023;48.670;6.184;2023-03-20T05:54:37;99481.91;;;17.62;44.83
50125;BME280;36023;48.670;6.184;2023-03-20T05:57:17;99487.00;;;17.65;44.75
50125;BME280;36023;48.670;6.184;2023-03-20T05:59:55;99487.81;;;17.67;44.66
50125;BME280;36023;48.670;6.184;2023-03-20T06:02:43;99492.06;;;17.69;44.63
50125;BME280;36023;48.670;6.184;2023-03-20T06:05:35;99493.72;;;17.72;44.62
50125;BME280;36023;48.670;6.184;2023-03-20T06:08:01;99487.53;;;17.74;44.55
50125;BME280;36023;48.670;6.184;2023-03-20T06:10:27;99489.22;;;17.75;44.53
50125;BME280;36023;48.670;6.184;2023-03-20T06:12:56;99496.16;;;17.76;44.44
50125;BME280;36023;48.670;6.184;2023-03-20T06:15:24;99489.09;;;17.78;44.58
50125;BME280;36023;48.670;6.184;2023-03-20T06:17:56;99494.25;;;17.80;44.38
50125;BME280;36023;48.670;6.184;2023-03-20T06:20:24;99496.75;;;17.83;44.40
50125;BME280;36023;48.670;6.184;2023-03-20T06:22:50;99495.00;;;17.84;44.39
50125;BME280;36023;48.670;6.184;2023-03-20T06:25:17;99498.38;;;17.86;44.24
50125;BME280;36023;48.670;6.184;2023-03-20T06:27:45;99495.78;;;17.86;44.20
50125;BME280;36023;48.670;6.184;2023-03-20T06:30:12;99503.56;;;17.87;44.23
50125;BME280;36023;48.670;6.184;2023-03-20T06:32:39;99495.69;;;17.87;44.29
50125;BME280;36023;48.670;6.184;2023-03-20T06:35:08;99494.00;;;17.86;44.23
50125;BME280;36023;48.670;6.184;2023-03-20T06:37:34;99494.06;;;17.85;44.11
50125;BME280;36023;48.670;6.184;2023-03-20T06:40:07;99495.00;;;17.84;44.15
50125;BME280;36023;48.670;6.184;2023-03-20T06:42:36;99494.19;;;17.81;44.26
50125;BME280;36023;48.670;6.184;2023-03-20T06:45:04;99496.94;;;17.78;44.16
50125;BME280;36023;48.670;6.184;2023-03-20T06:47:53;99500.47;;;17.77;44.14
50125;BME280;36023;48.670;6.184;2023-03-20T06:50:20;99503.19;;;17.76;44.12
50125;BME280;36023;48.670;6.184;2023-03-20T06:52:47;99507.59;;;17.74;43.89
50125;BME280;36023;48.670;6.184;2023-03-20T06:55:35;99529.47;;;17.73;44.00
50125;BME280;36023;48.670;6.184;2023-03-20T06:58:03;99520.84;;;17.71;44.25
50125;BME280;36023;48.670;6.184;2023-03-20T07:00:30;99531.38;;;17.69;44.16
50125;BME280;36023;48.670;6.184;2023-03-20T07:03:00;99529.66;;;17.68;44.26
50125;BME280;36023;48.670;6.184;2023-03-20T07:05:25;99527.13;;;17.67;44.08
50125;BME280;36023;48.670;6.184;2023-03-20T07:07:52;99531.47;;;17.66;44.22
50125;BME280;36023;48.670;6.184;2023-03-20T07:10:17;99535.94;;;17.64;44.03
50125;BME280;36023;48.670;6.184;2023-03-20T07:12:48;99547.41;;;17.62;44.20
50125;BME280;36023;48.670;6.184;2023-03-20T07:15:16;99552.69;;;17.60;43.99
50125;BME280;36023;48.670;6.184;2023-03-20T07:17:42;99550.13;;;17.59;44.19
50125;BME280;36023;48.670;6.184;2023-03-20T07:20:08;99553.66;;;17.58;44.19
50125;BME280;36023;48.670;6.184;2023-03-20T07:22:35;99544.94;;;17.57;44.20
50125;BME280;36023;48.670;6.184;2023-03-20T07:25:23;99550.31;;;17.54;44.16
50125;BME280;36023;48.670;6.184;2023-03-20T07:27:49;99549.56;;;17.52;44.19
50125;BME280;36023;48.670;6.184;2023-03-20T07:30:17;99540.03;;;17.49;44.17
50125;BME280;36023;48.670;6.184;2023-03-20T07:32:44;99537.47;;;17.48;44.20
50125;BME280;36023;48.670;6.184;2023-03-20T07:35:11;99531.53;;;17.44;44.08
50125;BME280;36023;48.670;6.184;2023-03-20T07:37:40;99535.94;;;17.42;44.16
50125;BME280;36023;48.670;6.184;2023-03-20T07:40:07;99537.78;;;17.40;44.18
50125;BME280;36023;48.670;6.184;2023-03-20T07:42:55;99529.22;;;17.37;44.18
50125;BME280;36023;48.670;6.184;2023-03-20T07:45:39;99521.41;;;17.35;43.96
50125;BME280;36023;48.670;6.184;2023-03-20T07:48:05;99518.84;;;17.34;44.23
50125;BME280;36023;48.670;6.184;2023-03-20T07:50:32;99518.91;;;17.32;44.21
50125;BME280;36023;48.670;6.184;2023-03-20T07:52:58;99526.84;;;17.31;44.14
50125;BME280;36023;48.670;6.184;2023-03-20T07:55:25;99533.91;;;17.29;44.39
50125;BME280;36023;48.670;6.184;2023-03-20T07:57:52;99526.97;;;17.27;44.36
50125;BME280;36023;48.670;6.184;2023-03-20T08:00:18;99532.25;;;17.26;44.34
50125;BME280;36023;48.670;6.184;2023-03-20T08:02:44;99532.31;;;17.24;44.46
50125;BME280;36023;48.670;6.184;2023-03-20T08:05:10;99547.03;;;17.27;44.44
50125;BME280;36023;48.670;6.184;2023-03-20T08:07:35;99547.19;;;17.24;44.32
50125;BME280;36023;48.670;6.184;2023-03-20T08:10:01;99551.63;;;17.22;44.21
50125;BME280;36023;48.670;6.184;2023-03-20T08:12:27;99542.00;;;17.22;45.25
50125;BME280;36023;48.670;6.184;2023-03-20T08:14:53;99537.44;;;17.27;45.99
50125;BME280;36023;48.670;6.184;2023-03-20T08:17:19;99539.94;;;17.31;46.64
50125;BME280;36023;48.670;6.184;2023-03-20T08:19:44;99544.19;;;17.33;46.77
50125;BME280;36023;48.670;6.184;2023-03-20T08:22:10;99536.25;;;17.35;47.16
50125;BME280;36023;48.670;6.184;2023-03-20T08:24:36;99546.69;;;17.36;47.41
50125;BME280;36023;48.670;6.184;2023-03-20T08:27:01;99544.13;;;17.35;47.97
50125;BME280;36023;48.670;6.184;2023-03-20T08:29:27;99545.03;;;17.34;47.91
50125;BME280;36023;48.670;6.184;2023-03-20T08:31:53;99547.66;;;17.34;47.89
50125;BME280;36023;48.670;6.184;2023-03-20T08:34:19;99548.56;;;17.33;48.23
50125;BME280;36023;48.670;6.184;2023-03-20T08:36:44;99537.25;;;17.32;48.44
50125;BME280;36023;48.670;6.184;2023-03-20T08:39:11;99532.00;;;17.32;48.46
50125;BME280;36023;48.670;6.184;2023-03-20T08:41:39;99538.22;;;17.30;48.13
50125;BME280;36023;48.670;6.184;2023-03-20T08:44:11;99548.81;;;17.26;48.00
50125;BME280;36023;48.670;6.184;2023-03-20T08:46:37;99551.50;;;17.25;47.82
50125;BME280;36023;48.670;6.184;2023-03-20T08:49:04;99551.63;;;17.22;47.76
50125;BME280;36023;48.670;6.184;2023-03-20T08:51:32;99549.06;;;17.20;47.56
50125;BME280;36023;48.670;6.184;2023-03-20T08:53:57;99547.34;;;17.19;47.71
50125;BME280;36023;48.670;6.184;2023-03-20T08:56:23;99552.56;;;17.19;47.70
50125;BME280;36023;48.670;6.184;2023-03-20T08:58:49;99550.03;;;17.18;47.71
50125;BME280;36023;48.670;6.184;2023-03-20T09:01:14;99547.47;;;17.16;47.79
50125;BME280;36023;48.670;6.184;2023-03-20T09:03:40;99556.25;;;17.15;47.60
50125;BME280;36023;48.670;6.184;2023-03-20T09:06:07;99548.47;;;17.14;47.75
50125;BME280;36023;48.670;6.184;2023-03-20T09:08:33;99548.53;;;17.12;47.72
50125;BME280;36023;48.670;6.184;2023-03-20T09:10:59;99553.75;;;17.12;47.34
50125;BME280;36023;48.670;6.184;2023-03-20T09:13:25;99557.09;;;17.16;47.03
50125;BME280;36023;48.670;6.184;2023-03-20T09:15:51;99564.03;;;17.17;47.07
50125;BME280;36023;48.670;6.184;2023-03-20T09:18:18;99563.31;;;17.13;46.57
50125;BME280;36023;48.670;6.184;2023-03-20T09:20:45;99564.25;;;17.11;46.86
50125;BME280;36023;48.670;6.184;2023-03-20T09:23:11;99566.94;;;17.09;47.01
50125;BME280;36023;48.670;6.184;2023-03-20T09:25:36;99565.25;;;17.08;46.89
50125;BME280;36023;48.670;6.184;2023-03-20T09:28:02;99573.16;;;17.07;46.81
50125;BME280;36023;48.670;6.184;2023-03-20T09:30:28;99574.88;;;17.08;46.94
50125;BME280;36023;48.670;6.184;2023-03-20T09:32:54;99574.88;;;17.08;47.09
50125;BME280;36023;48.670;6.184;2023-03-20T09:35:20;99567.00;;;17.08;47.36
50125;BME280;36023;48.670;6.184;2023-03-20T09:37:46;99570.47;;;17.08;47.01
50125;BME280;36023;48.670;6.184;2023-03-20T09:40:28;99574.88;;;17.08;47.31
50125;BME280;36023;48.670;6.184;2023-03-20T09:43:07;99573.09;;;17.08;47.69
50125;BME280;36023;48.670;6.184;2023-03-20T09:45:45;99570.47;;;17.08;47.70
50125;BME280;36023;48.670;6.184;2023-03-20T09:51:09;99573.16;;;17.07;47.59
50125;BME280;36023;48.670;6.184;2023-03-20T09:53:44;99579.34;;;17.04;47.19
50125;BME280;36023;48.670;6.184;2023-03-20T09:56:19;99574.19;;;17.03;47.23
50125;BME280;36023;48.670;6.184;2023-03-20T09:58:57;99582.94;;;17.02;47.19
50125;BME280;36023;48.670;6.184;2023-03-20T10:01:28;99577.78;;;17.00;46.89
50125;BME280;36023;48.670;6.184;2023-03-20T10:04:00;99581.31;;;16.99;46.71
50125;BME280;36023;48.670;6.184;2023-03-20T10:06:29;99577.06;;;16.96;46.63
50125;BME280;36023;48.670;6.184;2023-03-20T10:08:54;99571.84;;;16.95;46.52
50125;BME280;36023;48.670;6.184;2023-03-20T10:14:37;99575.38;;;16.94;46.45
50125;BME280;36023;48.670;6.184;2023-03-20T10:17:38;99588.47;;;16.94;46.06
50125;BME280;36023;48.670;6.184;2023-03-20T10:20:18;99587.56;;;16.95;45.93
50125;BME280;36023;48.670;6.184;2023-03-20T10:22:52;99583.22;;;16.94;45.71
50125;BME280;36023;48.670;6.184;2023-03-20T10:25:35;99581.47;;;16.94;45.82
50125;BME280;36023;48.670;6.184;2023-03-20T10:28:21;99583.22;;;16.94;45.54
50125;BME280;36023;48.670;6.184;2023-03-20T10:33:41;99575.28;;;16.97;45.36
50125;BME280;36023;48.670;6.184;2023-03-20T10:39:03;99572.75;;;16.94;45.51
50125;BME280;36023;48.670;6.184;2023-03-20T10:41:35;99576.22;;;16.94;45.19
50125;BME280;36023;48.670;6.184;2023-03-20T10:44:04;99577.09;;;16.95;45.25
50125;BME280;36023;48.670;6.184;2023-03-20T10:46:41;99577.09;;;16.95;45.16
50125;BME280;36023;48.670;6.184;2023-03-20T10:49:23;99572.69;;;16.95;45.06
50125;BME280;36023;48.670;6.184;2023-03-20T10:51:55;99569.22;;;16.95;44.86
50125;BME280;36023;48.670;6.184;2023-03-20T10:54:26;99569.22;;;16.95;45.21
50125;BME280;36023;48.670;6.184;2023-03-20T10:57:02;99562.25;;;16.95;44.91
50125;BME280;36023;48.670;6.184;2023-03-20T10:59:42;99561.38;;;16.95;45.00
50125;BME280;36023;48.670;6.184;2023-03-20T11:02:14;99560.53;;;16.94;44.99
50125;BME280;36023;48.670;6.184;2023-03-20T11:04:40;99561.38;;;16.95;44.78
50125;BME280;36023;48.670;6.184;2023-03-20T11:12:41;99552.69;;;16.94;45.09
50125;BME280;36023;48.670;6.184;2023-03-20T11:15:26;99554.44;;;16.94;44.85
50125;BME280;36023;48.670;6.184;2023-03-20T11:20:25;99541.44;;;16.92;44.66
50125;BME280;36023;48.670;6.184;2023-03-20T11:22:58;99544.91;;;16.93;44.54
50125;BME280;36023;48.670;6.184;2023-03-20T11:25:32;99550.91;;;16.95;44.59
50125;BME280;36023;48.670;6.184;2023-03-20T11:28:30;99552.63;;;16.96;44.43
50125;BME280;36023;48.670;6.184;2023-03-20T11:31:03;99548.31;;;16.95;44.74
50125;BME280;36023;48.670;6.184;2023-03-20T11:33:31;99543.88;;;16.97;44.87
50125;BME280;36023;48.670;6.184;2023-03-20T11:35:58;99540.34;;;16.98;44.89
50125;BME280;36023;48.670;6.184;2023-03-20T11:38:24;99539.44;;;16.99;44.97
50125;BME280;36023;48.670;6.184;2023-03-20T11:40:52;99534.22;;;16.99;44.89
50125;BME280;36023;48.670;6.184;2023-03-20T11:43:25;99535.97;;;16.98;45.03
50125;BME280;36023;48.670;6.184;2023-03-20T11:45:59;99533.34;;;16.98;45.00
50125;BME280;36023;48.670;6.184;2023-03-20T11:48:37;99517.66;;;16.98;44.99
50125;BME280;36023;48.670;6.184;2023-03-20T11:51:13;99521.19;;;16.97;45.10
50125;BME280;36023;48.670;6.184;2023-03-20T11:54:00;99517.66;;;16.98;44.95
50125;BME280;36023;48.670;6.184;2023-03-20T11:56:32;99521.13;;;16.99;44.92
50125;BME280;36023;48.670;6.184;2023-03-20T11:59:14;99517.66;;;16.98;44.89
50125;BME280;36023;48.670;6.184;2023-03-20T12:01:49;99509.75;;;17.00;44.98
50125;BME280;36023;48.670;6.184;2023-03-20T12:04:26;99513.13;;;17.02;44.75
50125;BME280;36023;48.670;6.184;2023-03-20T12:07:05;99511.44;;;17.01;44.70
50125;BME280;36023;48.670;6.184;2023-03-20T12:09:45;99506.22;;;17.01;44.82
50125;BME280;36023;48.670;6.184;2023-03-20T12:15:24;99504.38;;;17.03;45.00
50125;BME280;36023;48.670;6.184;2023-03-20T12:20:40;99499.13;;;17.03;44.73
50125;BME280;36023;48.670;6.184;2023-03-20T12:25:56;99478.22;;;17.03;44.63
50125;BME280;36023;48.670;6.184;2023-03-20T12:28:43;99474.69;;;17.04;44.89
50125;BME280;36023;48.670;6.184;2023-03-20T12:31:41;99477.25;;;17.06;44.64
50125;BME280;36023;48.670;6.184;2023-03-20T12:36:46;99471.94;;;17.07;44.70
50125;BME280;36023;48.670;6.184;2023-03-20T12:39:16;99461.50;;;17.07;44.70
50125;BME280;36023;48.670;6.184;2023-03-20T12:44:38;99464.88;;;17.09;44.79
50125;BME280;36023;48.670;6.184;2023-03-20T12:47:14;99465.81;;;17.08;44.85
50125;BME280;36023;48.670;6.184;2023-03-20T12:49:55;99472.72;;;17.09;44.92
50125;BME280;36023;48.670;6.184;2023-03-20T12:52:48;99470.13;;;17.09;44.83
50125;BME280;36023;48.670;6.184;2023-03-20T13:06:41;99455.19;;;17.11;44.93
50125;BME280;36023;48.670;6.184;2023-03-20T13:12:28;99448.16;;;17.13;45.46
50125;BME280;36023;48.670;6.184;2023-03-20T13:17:30;99447.09;;;17.17;45.78
50125;BME280;36023;48.670;6.184;2023-03-20T13:22:55;99447.03;;;17.19;46.03
50125;BME280;36023;48.670;6.184;2023-03-20T13:30:36;99443.53;;;17.20;46.29
50125;BME280;36023;48.670;6.184;2023-03-20T13:36:37;99433.09;;;17.18;46.24
50125;BME280;36023;48.670;6.184;2023-03-20T13:39:02;99441.78;;;17.19;46.29
50125;BME280;36023;48.670;6.184;2023-03-20T13:41:33;99430.47;;;17.18;46.37
50125;BME280;36023;48.670;6.184;2023-03-20T13:44:03;99430.47;;;17.18;46.33
50125;BME280;36023;48.670;6.184;2023-03-20T13:51:59;99432.31;;;17.16;46.24
50125;BME280;36023;48.670;6.184;2023-03-20T14:04:50;99424.47;;;17.16;46.11
50125;BME280;36023;48.670;6.184;2023-03-20T14:07:34;99419.22;;;17.16;46.22
50125;BME280;36023;48.670;6.184;2023-03-20T14:12:48;99409.69;;;17.15;46.05
50125;BME280;36023;48.670;6.184;2023-03-20T14:15:14;99409.69;;;17.15;46.19
50125;BME280;36023;48.670;6.184;2023-03-20T14:17:46;99410.53;;;17.16;46.22
50125;BME280;36023;48.670;6.184;2023-03-20T14:20:38;99402.69;;;17.16;46.15
50125;BME280;36023;48.670;6.184;2023-03-20T14:23:06;99402.69;;;17.16;46.14
50125;BME280;36023;48.670;6.184;2023-03-20T14:25:41;99392.22;;;17.16;46.38
50125;BME280;36023;48.670;6.184;2023-03-20T14:30:42;99405.22;;;17.17;46.18
50125;BME280;36023;48.670;6.184;2023-03-20T14:38:52;99392.13;;;17.17;46.34
50125;BME280;36023;48.670;6.184;2023-03-20T14:54:54;99380.81;;;17.17;46.28
50125;BME280;36023;48.670;6.184;2023-03-20T14:57:31;99372.06;;;17.18;46.30
50125;BME280;36023;48.670;6.184;2023-03-20T14:59:59;99378.13;;;17.18;46.37
50125;BME280;36023;48.670;6.184;2023-03-20T15:02:34;99381.66;;;17.17;46.31
50125;BME280;36023;48.670;6.184;2023-03-20T15:05:01;99364.19;;;17.18;46.32
50125;BME280;36023;48.670;6.184;2023-03-20T15:07:29;99365.13;;;17.17;46.33
50125;BME280;36023;48.670;6.184;2023-03-20T15:09:59;99359.97;;;17.15;46.22
50125;BME280;36023;48.670;6.184;2023-03-20T15:12:27;99365.97;;;17.17;46.62
50125;BME280;36023;48.670;6.184;2023-03-20T15:15:02;99364.13;;;17.19;46.51
50125;BME280;36023;48.670;6.184;2023-03-20T15:17:36;99365.72;;;17.23;46.64
50125;BME280;36023;48.670;6.184;2023-03-20T15:20:17;99364.69;;;17.27;46.75
50125;BME280;36023;48.670;6.184;2023-03-20T15:25:20;99360.81;;;17.36;46.79
50125;BME280;36023;48.670;6.184;2023-03-20T15:27:47;99363.22;;;17.41;46.88
50125;BME280;36023;48.670;6.184;2023-03-20T15:30:17;99358.75;;;17.43;46.83
50125;BME280;36023;48.670;6.184;2023-03-20T15:32:43;99349.94;;;17.45;46.62
50125;BME280;36023;48.670;6.184;2023-03-20T15:35:12;99356.81;;;17.48;46.69
50125;BME280;36023;48.670;6.184;2023-03-20T15:37:40;99361.91;;;17.51;46.73
50125;BME280;36023;48.670;6.184;2023-03-20T15:40:22;99363.53;;;17.53;46.73
50125;BME280;36023;48.670;6.184;2023-03-20T15:42:55;99352.06;;;17.56;46.69
50125;BME280;36023;48.670;6.184;2023-03-20T15:45:31;99352.84;;;17.58;46.84
50125;BME280;36023;48.670;6.184;2023-03-20T15:48:18;99346.66;;;17.61;46.79
50125;BME280;36023;48.670;6.184;2023-03-20T15:50:47;99335.25;;;17.62;46.66
50125;BME280;36023;48.670;6.184;2023-03-20T15:53:28;99334.31;;;17.63;46.45
50125;BME280;36023;48.670;6.184;2023-03-20T15:56:04;99325.47;;;17.65;46.67